Time;durP1;ratioP1;P1;durP2;ratioP2;P2;SDS_P1;SDS_P2;PMS_P1;PMS_P2;Temp;Humidity;BMP_temperature;BMP_pressure;BME280_temperature;BME280_humidity;BME280_pressure;Samples;Min_cycle;Max_cycle;Signal;HPM_P1;HPM_P2
2020/12/26 00:01:18;;;;;;;3.83;2.80;;;;;;;;;;5102272;28;20187;-59
2020/12/26 00:03:45;;;;;;;4.50;3.10;;;;;;;;;;5101282;28;20421;-58
2020/12/26 00:06:15;;;;;;;6.87;3.70;;;;;;;;;;5084452;28;20537;-60
2020/12/26 00:08:41;;;;;;;6.87;3.57;;;;;;;;;;5092965;28;20250;-58
2020/12/26 00:11:09;;;;;;;4.10;3.70;;;;;;;;;;5099722;28;20426;-58
2020/12/26 00:13:35;;;;;;;6.87;3.53;;;;;;;;;;5094868;28;20422;-57
2020/12/26 00:16:04;;;;;;;4.93;3.47;;;;;;;;;;5092465;28;20183;-59
2020/12/26 00:18:30;;;;;;;4.97;4.00;;;;;;;;;;5113166;27;20422;-57
2020/12/26 00:20:56;;;;;;;6.33;3.10;;;;;;;;;;5092065;28;20417;-57
2020/12/26 00:23:22;;;;;;;7.37;3.97;;;;;;;;;;5073628;28;20645;-58
2020/12/26 00:25:48;;;;;;;4.53;3.57;;;;;;;;;;5095365;28;20424;-58
2020/12/26 00:28:15;;;;;;;4.90;3.57;;;;;;;;;;5101354;27;20196;-57
2020/12/26 00:30:41;;;;;;;6.90;3.57;;;;;;;;;;5091421;28;20647;-60
2020/12/26 00:33:07;;;;;;;4.33;3.13;;;;;;;;;;5091913;28;20420;-58
2020/12/26 00:35:33;;;;;;;6.73;3.90;;;;;;;;;;5092300;28;20422;-57
2020/12/26 00:37:59;;;;;;;4.67;3.50;;;;;;;;;;5092583;28;20429;-58
2020/12/26 00:40:25;;;;;;;6.73;3.60;;;;;;;;;;5101980;27;20428;-57
2020/12/26 00:42:51;;;;;;;6.90;4.37;;;;;;;;;;5109991;27;20184;-60
2020/12/26 00:45:17;;;;;;;5.47;3.47;;;;;;;;;;5090622;28;20513;-57
2020/12/26 00:47:44;;;;;;;6.23;3.40;;;;;;;;;;5112556;27;20993;-58
2020/12/26 00:50:10;;;;;;;6.03;3.87;;;;;;;;;;5112069;28;20541;-57
2020/12/26 00:52:36;;;;;;;7.03;3.27;;;;;;;;;;5110454;28;20764;-57
2020/12/26 00:55:02;;;;;;;4.83;3.20;;;;;;;;;;5084780;28;20929;-58
2020/12/26 00:57:28;;;;;;;7.33;3.90;;;;;;;;;;5095963;27;20896;-58
2020/12/26 00:59:54;;;;;;;6.00;3.50;;;;;;;;;;5091843;28;20452;-58
2020/12/26 01:02:20;;;;;;;5.20;3.83;;;;;;;;;;5091792;28;20214;-58
2020/12/26 01:04:46;;;;;;;5.40;3.67;;;;;;;;;;5099048;28;20210;-57
2020/12/26 01:07:12;;;;;;;4.93;3.70;;;;;;;;;;5109089;28;20569;-57
2020/12/26 01:09:38;;;;;;;6.13;4.37;;;;;;;;;;5110355;28;20243;-58
2020/12/26 01:12:05;;;;;;;6.10;3.23;;;;;;;;;;5095677;28;20185;-57
2020/12/26 01:14:31;;;;;;;6.27;4.00;;;;;;;;;;5091751;28;20795;-57
2020/12/26 01:16:57;;;;;;;6.10;3.90;;;;;;;;;;5098603;28;20536;-56
2020/12/26 01:19:23;;;;;;;7.97;4.63;;;;;;;;;;5108752;27;20266;-58
2020/12/26 01:21:50;;;;;;;6.77;4.67;;;;;;;;;;5107854;28;20416;-58
2020/12/26 01:24:16;;;;;;;6.30;4.70;;;;;;;;;;5095748;28;20425;-57
2020/12/26 01:26:42;;;;;;;7.27;4.57;;;;;;;;;;5104927;28;20439;-57
2020/12/26 01:29:08;;;;;;;6.23;4.13;;;;;;;;;;5097587;27;20951;-58
2020/12/26 01:31:34;;;;;;;7.37;4.53;;;;;;;;;;5102078;28;20204;-57
2020/12/26 01:34:00;;;;;;;7.07;4.97;;;;;;;;;;5082627;28;20431;-57
2020/12/26 01:36:26;;;;;;;5.77;4.57;;;;;;;;;;5103531;28;20630;-56
2020/12/26 01:38:53;;;;;;;6.73;4.90;;;;;;;;;;5092923;28;20211;-58
2020/12/26 01:41:19;;;;;;;5.47;4.90;;;;;;;;;;5090222;28;20191;-57
2020/12/26 01:43:54;;;;;;;6.93;4.77;;;;;;;;;;5097023;28;20464;-57
2020/12/26 01:46:21;;;;;;;10.30;5.37;;;;;;;;;;5099968;28;20916;-58
2020/12/26 01:48:47;;;;;;;10.30;5.77;;;;;;;;;;5103244;28;20506;-60
2020/12/26 01:51:13;;;;;;;6.37;4.67;;;;;;;;;;5099964;28;20420;-57
2020/12/26 01:53:40;;;;;;;8.27;4.87;;;;;;;;;;5074613;28;20833;-58
2020/12/26 01:56:06;;;;;;;7.83;4.40;;;;;;;;;;5093985;28;20297;-58
2020/12/26 01:58:35;;;;;;;6.27;4.73;;;;;;;;;;5107002;28;20868;-58
2020/12/26 02:01:01;;;;;;;7.40;4.83;;;;;;;;;;5092941;28;20425;-58
2020/12/26 02:03:27;;;;;;;5.97;4.67;;;;;;;;;;5095583;28;20430;-57
2020/12/26 02:05:54;;;;;;;8.40;4.90;;;;;;;;;;5089480;28;20522;-57
2020/12/26 02:08:20;;;;;;;7.70;5.00;;;;;;;;;;5095019;28;20207;-58
2020/12/26 02:10:46;;;;;;;9.20;5.20;;;;;;;;;;5092891;28;20757;-58
2020/12/26 02:13:12;;;;;;;6.90;5.10;;;;;;;;;;5095717;28;20417;-58
2020/12/26 02:15:38;;;;;;;9.70;4.77;;;;;;;;;;5117532;27;20183;-58
2020/12/26 02:18:04;;;;;;;9.07;5.50;;;;;;;;;;5112466;28;20440;-57
2020/12/26 02:20:30;;;;;;;6.67;5.10;;;;;;;;;;5098791;28;20215;-57
2020/12/26 02:22:57;;;;;;;7.43;5.50;;;;;;;;;;5106974;28;20254;-57
2020/12/26 02:25:23;;;;;;;10.03;5.40;;;;;;;;;;5099854;28;20184;-58
2020/12/26 02:27:49;;;;;;;6.77;4.50;;;;;;;;;;5103686;28;20467;-57
2020/12/26 02:30:15;;;;;;;6.13;5.00;;;;;;;;;;5112325;28;20277;-57
2020/12/26 02:32:41;;;;;;;6.83;4.53;;;;;;;;;;5100781;28;20229;-57
2020/12/26 02:35:07;;;;;;;6.27;4.20;;;;;;;;;;5106200;28;20174;-58
2020/12/26 02:37:33;;;;;;;5.03;4.53;;;;;;;;;;5104304;28;20218;-60
2020/12/26 02:39:59;;;;;;;7.90;4.47;;;;;;;;;;5104711;28;20622;-57
2020/12/26 02:42:25;;;;;;;6.33;4.80;;;;;;;;;;5109357;28;20186;-57
2020/12/26 02:44:51;;;;;;;6.13;4.87;;;;;;;;;;5098822;27;20184;-57
2020/12/26 02:47:17;;;;;;;5.67;3.83;;;;;;;;;;5104287;28;20441;-57
2020/12/26 02:49:43;;;;;;;7.07;4.27;;;;;;;;;;5114143;28;20499;-60
2020/12/26 02:52:09;;;;;;;6.93;4.00;;;;;;;;;;5102185;27;20218;-57
2020/12/26 02:54:35;;;;;;;5.83;4.33;;;;;;;;;;5111501;27;20926;-57
2020/12/26 02:57:01;;;;;;;8.43;4.17;;;;;;;;;;5093456;28;20456;-58
2020/12/26 02:59:27;;;;;;;5.10;4.10;;;;;;;;;;5093922;28;20183;-57
2020/12/26 03:01:53;;;;;;;5.90;4.30;;;;;;;;;;5105626;28;20479;-58
2020/12/26 03:04:19;;;;;;;7.57;4.43;;;;;;;;;;5104294;28;20233;-58
2020/12/26 03:06:45;;;;;;;7.20;4.23;;;;;;;;;;5096920;28;20412;-57
2020/12/26 03:09:11;;;;;;;5.97;4.13;;;;;;;;;;5104353;28;20466;-57
2020/12/26 03:11:37;;;;;;;9.10;4.37;;;;;;;;;;5093667;28;20958;-58
2020/12/26 03:14:03;;;;;;;5.10;3.70;;;;;;;;;;5118525;27;20842;-58
2020/12/26 03:16:29;;;;;;;6.33;4.07;;;;;;;;;;5108080;27;20434;-57
2020/12/26 03:18:55;;;;;;;7.20;4.07;;;;;;;;;;5100446;28;20179;-57
2020/12/26 03:21:21;;;;;;;5.73;4.03;;;;;;;;;;5074598;28;20657;-58
2020/12/26 03:23:47;;;;;;;7.37;4.03;;;;;;;;;;5099296;28;20183;-56
2020/12/26 03:26:13;;;;;;;5.57;3.83;;;;;;;;;;5093147;28;20172;-57
2020/12/26 03:28:39;;;;;;;6.07;4.13;;;;;;;;;;5075072;28;20462;-58
2020/12/26 03:31:05;;;;;;;6.23;4.07;;;;;;;;;;5102120;28;20456;-57
2020/12/26 03:33:31;;;;;;;4.63;4.13;;;;;;;;;;5107628;28;20428;-56
2020/12/26 03:35:57;;;;;;;8.93;4.07;;;;;;;;;;5074809;28;20413;-57
2020/12/26 03:38:23;;;;;;;7.70;4.07;;;;;;;;;;5102468;28;20421;-57
2020/12/26 03:40:49;;;;;;;4.70;4.27;;;;;;;;;;5112503;28;20417;-57
2020/12/26 03:43:15;;;;;;;6.10;4.37;;;;;;;;;;5091310;27;20859;-57
2020/12/26 03:45:41;;;;;;;6.50;4.67;;;;;;;;;;5133768;27;20186;-58
2020/12/26 03:48:07;;;;;;;7.63;4.37;;;;;;;;;;5109875;27;20203;-58
2020/12/26 03:50:33;;;;;;;7.57;4.40;;;;;;;;;;5086615;28;20791;-58
2020/12/26 03:52:59;;;;;;;6.53;5.00;;;;;;;;;;5096461;28;20427;-57
2020/12/26 03:55:25;;;;;;;6.50;5.17;;;;;;;;;;5107920;28;20179;-58
2020/12/26 03:57:51;;;;;;;6.43;4.30;;;;;;;;;;5096615;27;20199;-58
2020/12/26 04:00:17;;;;;;;9.27;5.70;;;;;;;;;;5101393;28;20250;-58
2020/12/26 04:02:43;;;;;;;10.23;5.60;;;;;;;;;;5109399;28;20179;-57
2020/12/26 04:05:10;;;;;;;13.67;6.53;;;;;;;;;;5092871;28;20481;-58
2020/12/26 04:07:36;;;;;;;10.17;7.37;;;;;;;;;;5081488;28;20196;-57
2020/12/26 04:10:02;;;;;;;10.50;7.20;;;;;;;;;;5113920;27;20416;-57
2020/12/26 04:12:28;;;;;;;6.97;5.70;;;;;;;;;;5105492;27;20172;-59
2020/12/26 04:14:54;;;;;;;11.07;6.60;;;;;;;;;;5106061;28;20891;-57
2020/12/26 04:17:22;;;;;;;9.63;6.23;;;;;;;;;;5112030;28;20182;-58
2020/12/26 04:19:49;;;;;;;11.10;7.20;;;;;;;;;;5102854;28;20216;-58
2020/12/26 04:22:15;;;;;;;7.77;5.73;;;;;;;;;;5098626;28;20417;-58
2020/12/26 04:24:41;;;;;;;8.23;6.23;;;;;;;;;;5104273;28;20422;-57
2020/12/26 04:27:07;;;;;;;9.13;6.13;;;;;;;;;;5106842;28;20437;-58
2020/12/26 04:29:33;;;;;;;7.00;6.07;;;;;;;;;;5093948;28;20493;-58
2020/12/26 04:31:59;;;;;;;7.83;6.67;;;;;;;;;;5092961;28;22103;-59
2020/12/26 04:34:25;;;;;;;8.47;6.10;;;;;;;;;;5093272;28;20230;-57
2020/12/26 04:36:51;;;;;;;7.80;5.80;;;;;;;;;;5077711;28;20666;-57
2020/12/26 04:39:17;;;;;;;9.77;6.20;;;;;;;;;;5112214;28;20175;-57
2020/12/26 04:41:44;;;;;;;8.77;7.60;;;;;;;;;;5105515;28;20541;-58
2020/12/26 04:44:11;;;;;;;11.30;6.40;;;;;;;;;;5117551;27;20463;-57
2020/12/26 04:46:40;;;;;;;7.43;6.57;;;;;;;;;;5098514;28;20478;-58
2020/12/26 04:49:10;;;;;;;9.37;6.83;;;;;;;;;;5104082;28;20938;-56
2020/12/26 04:51:37;;;;;;;9.90;6.50;;;;;;;;;;5073274;28;20425;-58
2020/12/26 04:54:15;;;;;;;11.80;6.97;;;;;;;;;;5092437;28;20846;-57
2020/12/26 04:56:42;;;;;;;11.83;7.47;;;;;;;;;;5110525;28;20405;-58
2020/12/26 04:59:09;;;;;;;16.03;7.97;;;;;;;;;;5099886;28;20422;-57
2020/12/26 05:01:37;;;;;;;9.33;7.37;;;;;;;;;;5109750;28;20460;-58
2020/12/26 05:04:03;;;;;;;10.80;7.10;;;;;;;;;;5092289;28;20452;-58
2020/12/26 05:06:30;;;;;;;7.77;6.30;;;;;;;;;;5092421;28;20465;-56
2020/12/26 05:08:56;;;;;;;10.10;7.73;;;;;;;;;;5091701;28;20515;-57
2020/12/26 05:11:23;;;;;;;10.73;6.47;;;;;;;;;;5091261;28;20426;-58
2020/12/26 05:13:49;;;;;;;11.47;6.67;;;;;;;;;;5118909;27;20427;-57
2020/12/26 05:16:15;;;;;;;9.33;6.07;;;;;;;;;;5111664;27;20520;-58
2020/12/26 05:18:41;;;;;;;9.87;7.00;;;;;;;;;;5098938;28;20241;-58
2020/12/26 05:21:07;;;;;;;8.03;6.20;;;;;;;;;;5090942;28;20912;-57
2020/12/26 05:23:35;;;;;;;8.13;6.50;;;;;;;;;;5091465;28;20245;-58
2020/12/26 05:26:01;;;;;;;8.33;5.60;;;;;;;;;;5091020;28;20429;-58
2020/12/26 05:28:31;;;;;;;9.83;6.37;;;;;;;;;;5102481;28;20469;-57
2020/12/26 05:30:57;;;;;;;9.00;6.50;;;;;;;;;;5106662;28;20931;-58
2020/12/26 05:33:23;;;;;;;10.83;6.83;;;;;;;;;;5093594;28;20437;-58
2020/12/26 05:35:50;;;;;;;8.27;6.57;;;;;;;;;;5073345;28;20180;-58
2020/12/26 05:38:16;;;;;;;7.53;6.50;;;;;;;;;;5096597;28;20430;-58
2020/12/26 05:40:47;;;;;;;7.67;6.93;;;;;;;;;;5090879;28;20429;-58
2020/12/26 05:43:15;;;;;;;10.30;7.20;;;;;;;;;;5100105;28;20429;-57
2020/12/26 05:45:41;;;;;;;8.33;6.40;;;;;;;;;;5090994;28;20426;-57
2020/12/26 05:48:08;;;;;;;7.73;6.57;;;;;;;;;;5091866;28;20461;-57
2020/12/26 05:50:34;;;;;;;8.23;7.30;;;;;;;;;;5090683;28;20500;-58
2020/12/26 05:53:02;;;;;;;7.23;6.50;;;;;;;;;;5097711;28;21055;-59
2020/12/26 05:55:36;;;;;;;7.30;6.37;;;;;;;;;;5111163;28;20773;-57
2020/12/26 05:58:02;;;;;;;9.30;7.83;;;;;;;;;;5109145;28;20423;-56
2020/12/26 06:00:36;;;;;;;10.57;8.17;;;;;;;;;;5100966;28;20409;-58
2020/12/26 06:03:20;;;;;;;10.17;7.23;;;;;;;;;;5108480;28;20417;-56
2020/12/26 06:05:49;;;;;;;8.13;7.23;;;;;;;;;;5091039;28;20465;-59
2020/12/26 06:08:19;;;;;;;8.83;7.10;;;;;;;;;;5083729;28;20799;-58
2020/12/26 06:10:49;;;;;;;9.63;6.87;;;;;;;;;;5110812;28;20405;-58
2020/12/26 06:13:17;;;;;;;9.13;7.90;;;;;;;;;;5117870;28;20419;-58
2020/12/26 06:15:47;;;;;;;11.33;7.30;;;;;;;;;;5091157;28;20417;-59
2020/12/26 06:18:14;;;;;;;8.83;7.73;;;;;;;;;;5091359;28;20410;-57
2020/12/26 06:20:41;;;;;;;11.43;7.03;;;;;;;;;;5090590;28;20434;-57
2020/12/26 06:23:07;;;;;;;8.20;7.40;;;;;;;;;;5095523;28;20428;-57
2020/12/26 06:25:34;;;;;;;8.60;7.70;;;;;;;;;;5110884;28;20405;-57
2020/12/26 06:28:01;;;;;;;9.80;7.90;;;;;;;;;;5098569;28;20494;-56
2020/12/26 06:30:28;;;;;;;8.33;7.53;;;;;;;;;;5092099;28;20487;-59
2020/12/26 06:32:55;;;;;;;10.13;7.97;;;;;;;;;;5091444;28;20745;-57
2020/12/26 06:35:21;;;;;;;10.17;8.73;;;;;;;;;;5109110;28;20429;-60
2020/12/26 06:38:07;;;;;;;11.40;8.07;;;;;;;;;;5098242;28;20418;-58
2020/12/26 06:40:33;;;;;;;9.07;8.20;;;;;;;;;;5076569;28;20506;-57
2020/12/26 06:42:59;;;;;;;10.30;8.63;;;;;;;;;;5096876;28;20966;-57
2020/12/26 06:45:32;;;;;;;8.73;7.83;;;;;;;;;;5080652;28;20182;-59
2020/12/26 06:47:58;;;;;;;9.20;8.30;;;;;;;;;;5095038;28;20192;-56
2020/12/26 06:50:25;;;;;;;9.10;8.30;;;;;;;;;;5104298;28;20521;-57
2020/12/26 06:52:52;;;;;;;10.17;9.17;;;;;;;;;;5099072;28;20574;-58
2020/12/26 06:55:40;;;;;;;9.43;8.43;;;;;;;;;;5096710;28;20411;-57
2020/12/26 06:58:06;;;;;;;12.97;9.03;;;;;;;;;;5101712;28;20421;-57
2020/12/26 07:00:32;;;;;;;10.23;9.03;;;;;;;;;;5103390;28;20428;-58
2020/12/26 07:03:17;;;;;;;12.50;9.47;;;;;;;;;;5102367;28;20422;-57
2020/12/26 07:05:44;;;;;;;10.10;8.83;;;;;;;;;;5094062;28;20489;-58
2020/12/26 07:08:26;;;;;;;13.13;9.03;;;;;;;;;;5108279;28;20849;-57
2020/12/26 07:10:53;;;;;;;13.53;9.23;;;;;;;;;;5113366;28;20405;-56
2020/12/26 07:13:38;;;;;;;10.60;9.33;;;;;;;;;;5099139;28;20429;-58
2020/12/26 07:16:04;;;;;;;14.20;10.67;;;;;;;;;;5094069;28;20397;-57
2020/12/26 07:18:30;;;;;;;13.13;10.57;;;;;;;;;;5093652;28;20741;-58
2020/12/26 07:20:56;;;;;;;12.63;11.33;;;;;;;;;;5075407;28;20421;-58
2020/12/26 07:23:22;;;;;;;12.10;10.63;;;;;;;;;;5094021;28;20630;-58
2020/12/26 07:25:48;;;;;;;13.47;9.80;;;;;;;;;;5085634;28;20507;-58
2020/12/26 07:28:14;;;;;;;13.70;11.30;;;;;;;;;;5112894;28;20463;-58
2020/12/26 07:30:40;;;;;;;13.43;10.40;;;;;;;;;;5110047;28;20448;-56
2020/12/26 07:33:06;;;;;;;12.97;10.57;;;;;;;;;;5098198;28;20428;-58
2020/12/26 07:35:33;;;;;;;11.90;10.13;;;;;;;;;;5093311;28;20172;-58
2020/12/26 07:38:06;;;;;;;11.83;10.60;;;;;;;;;;5088282;28;20432;-56
2020/12/26 07:40:33;;;;;;;15.80;11.07;;;;;;;;;;5113364;28;20409;-60
2020/12/26 07:43:01;;;;;;;12.37;10.77;;;;;;;;;;5104029;27;20437;-58
2020/12/26 07:45:28;;;;;;;12.27;10.60;;;;;;;;;;5093567;28;20436;-58
2020/12/26 07:47:55;;;;;;;13.87;10.70;;;;;;;;;;5098118;28;20449;-58
2020/12/26 07:50:22;;;;;;;11.57;10.27;;;;;;;;;;5099796;27;20417;-57
2020/12/26 07:52:52;;;;;;;11.87;10.60;;;;;;;;;;5092554;28;20471;-57
2020/12/26 07:55:18;;;;;;;11.50;10.30;;;;;;;;;;5093324;28;20406;-58
2020/12/26 07:57:45;;;;;;;13.40;10.73;;;;;;;;;;5112229;27;20406;-57
2020/12/26 08:00:27;;;;;;;15.67;10.93;;;;;;;;;;5093143;28;20418;-57
2020/12/26 08:02:53;;;;;;;13.20;10.37;;;;;;;;;;5080618;28;20418;-58
2020/12/26 08:05:20;;;;;;;10.67;9.57;;;;;;;;;;5102120;27;20810;-56
2020/12/26 08:07:46;;;;;;;11.27;9.70;;;;;;;;;;5092858;28;20426;-57
2020/12/26 08:10:14;;;;;;;10.80;9.70;;;;;;;;;;5109713;28;20788;-57
2020/12/26 08:12:47;;;;;;;10.57;9.40;;;;;;;;;;5105717;27;20182;-56
2020/12/26 08:15:13;;;;;;;10.07;9.07;;;;;;;;;;5102096;28;20838;-58
2020/12/26 08:17:39;;;;;;;11.97;9.23;;;;;;;;;;5103841;28;20424;-55
2020/12/26 08:20:05;;;;;;;12.63;9.23;;;;;;;;;;5104448;28;20182;-56
2020/12/26 08:22:31;;;;;;;11.23;8.73;;;;;;;;;;5115297;27;20419;-56
2020/12/26 08:25:06;;;;;;;10.23;8.77;;;;;;;;;;5119998;27;21184;-58
2020/12/26 08:27:33;;;;;;;10.57;8.67;;;;;;;;;;5106721;28;20190;-58
2020/12/26 08:30:03;;;;;;;11.83;9.27;;;;;;;;;;5104613;27;20464;-58
2020/12/26 08:32:33;;;;;;;10.47;8.63;;;;;;;;;;5109339;27;20413;-57
2020/12/26 08:35:02;;;;;;;13.30;8.30;;;;;;;;;;5088873;28;20418;-57
2020/12/26 08:37:29;;;;;;;11.30;8.33;;;;;;;;;;5103200;28;20429;-59
2020/12/26 08:39:58;;;;;;;9.80;8.43;;;;;;;;;;5105770;28;20433;-59
2020/12/26 08:42:24;;;;;;;11.30;7.83;;;;;;;;;;5106889;27;20487;-58
2020/12/26 08:44:50;;;;;;;9.57;7.70;;;;;;;;;;5099877;28;20417;-58
2020/12/26 08:47:29;;;;;;;10.40;8.77;;;;;;;;;;5107679;28;20436;-58
2020/12/26 08:49:55;;;;;;;8.53;7.63;;;;;;;;;;5103425;28;20481;-60
2020/12/26 08:52:28;;;;;;;8.77;7.33;;;;;;;;;;5111170;27;20429;-58
2020/12/26 08:55:01;;;;;;;7.90;7.10;;;;;;;;;;5105273;28;20921;-57
2020/12/26 08:57:27;;;;;;;8.63;7.37;;;;;;;;;;5107454;28;20421;-59
2020/12/26 08:59:53;;;;;;;8.83;6.93;;;;;;;;;;5111376;28;20466;-59
2020/12/26 09:02:19;;;;;;;10.27;6.97;;;;;;;;;;5111042;28;20907;-59
2020/12/26 09:04:45;;;;;;;11.57;7.20;;;;;;;;;;5111149;28;20566;-57
2020/12/26 09:07:21;;;;;;;9.57;7.00;;;;;;;;;;5107220;28;20424;-58
2020/12/26 09:09:48;;;;;;;7.50;6.77;;;;;;;;;;5107793;28;20904;-59
2020/12/26 09:12:15;;;;;;;9.30;6.83;;;;;;;;;;5108158;27;20420;-57
2020/12/26 09:14:41;;;;;;;8.03;6.60;;;;;;;;;;5108093;28;20902;-57
2020/12/26 09:17:09;;;;;;;11.10;7.13;;;;;;;;;;5090028;28;21109;-57
2020/12/26 09:19:45;;;;;;;7.50;6.57;;;;;;;;;;5121197;27;22089;-58
2020/12/26 09:22:12;;;;;;;9.47;7.77;;;;;;;;;;5096855;28;20440;-58
2020/12/26 09:24:38;;;;;;;9.37;7.00;;;;;;;;;;5115278;27;20416;-59
2020/12/26 09:27:04;;;;;;;10.03;7.60;;;;;;;;;;5109907;28;20421;-61
2020/12/26 09:29:31;;;;;;;9.63;7.17;;;;;;;;;;5111347;28;20497;-58
2020/12/26 09:31:57;;;;;;;9.43;7.27;;;;;;;;;;5111389;28;20428;-57
2020/12/26 09:34:24;;;;;;;11.27;7.03;;;;;;;;;;5108766;28;20420;-58
2020/12/26 09:37:06;;;;;;;11.13;7.70;;;;;;;;;;5109999;28;20780;-59
2020/12/26 09:39:32;;;;;;;9.57;7.30;;;;;;;;;;5105338;28;21025;-57
2020/12/26 09:41:58;;;;;;;7.40;5.80;;;;;;;;;;5109472;28;20489;-57
2020/12/26 09:44:24;;;;;;;10.23;7.27;;;;;;;;;;5110001;28;20455;-59
2020/12/26 09:46:56;;;;;;;9.30;6.60;;;;;;;;;;5115946;28;20420;-58
2020/12/26 09:49:22;;;;;;;9.23;6.23;;;;;;;;;;5114174;28;20452;-59
2020/12/26 09:51:48;;;;;;;12.80;7.43;;;;;;;;;;5098011;28;20415;-58
2020/12/26 09:54:14;;;;;;;11.13;7.03;;;;;;;;;;5111468;28;20254;-59
2020/12/26 09:56:40;;;;;;;9.63;6.80;;;;;;;;;;5103358;28;20558;-60
2020/12/26 09:59:06;;;;;;;8.50;7.03;;;;;;;;;;5110152;28;20179;-59
2020/12/26 10:01:34;;;;;;;9.57;7.03;;;;;;;;;;5103781;28;20203;-60
2020/12/26 10:04:00;;;;;;;12.93;7.03;;;;;;;;;;5079242;28;20215;-60
2020/12/26 10:06:26;;;;;;;9.20;6.80;;;;;;;;;;5117365;28;20452;-58
2020/12/26 10:08:52;;;;;;;8.63;6.77;;;;;;;;;;5108847;28;20463;-60
2020/12/26 10:11:19;;;;;;;9.00;6.83;;;;;;;;;;5102493;28;20513;-58
2020/12/26 10:13:46;;;;;;;9.50;7.23;;;;;;;;;;5107695;28;20506;-58
2020/12/26 10:16:13;;;;;;;9.40;6.73;;;;;;;;;;5107504;28;20474;-59
2020/12/26 10:18:39;;;;;;;8.30;6.60;;;;;;;;;;5105375;28;20429;-58
2020/12/26 10:21:05;;;;;;;11.80;7.30;;;;;;;;;;5090558;28;20449;-58
2020/12/26 10:23:31;;;;;;;12.00;8.13;;;;;;;;;;5095518;28;20420;-57
2020/12/26 10:26:04;;;;;;;12.00;7.13;;;;;;;;;;5101386;28;20903;-57
2020/12/26 10:28:30;;;;;;;10.73;7.27;;;;;;;;;;5089271;28;20505;-60
2020/12/26 10:30:56;;;;;;;10.13;7.63;;;;;;;;;;5098531;28;20433;-57
2020/12/26 10:33:22;;;;;;;10.47;7.50;;;;;;;;;;5084900;28;20425;-58
2020/12/26 10:35:48;;;;;;;15.37;7.10;;;;;;;;;;5091076;27;20462;-57
2020/12/26 10:38:14;;;;;;;10.13;6.87;;;;;;;;;;5110863;27;20179;-57
2020/12/26 10:40:40;;;;;;;13.43;8.07;;;;;;;;;;5124258;27;20221;-60
2020/12/26 10:43:06;;;;;;;10.53;6.83;;;;;;;;;;5112421;27;20179;-58
2020/12/26 10:45:32;;;;;;;9.47;7.27;;;;;;;;;;5105732;27;20510;-58
2020/12/26 10:47:58;;;;;;;14.33;7.10;;;;;;;;;;5103189;28;20542;-58
2020/12/26 10:50:24;;;;;;;10.33;7.00;;;;;;;;;;5117432;27;20171;-57
2020/12/26 10:52:50;;;;;;;9.93;6.60;;;;;;;;;;5130691;27;20432;-58
2020/12/26 10:55:17;;;;;;;7.80;6.03;;;;;;;;;;5111220;28;20618;-57
2020/12/26 10:57:43;;;;;;;9.20;5.70;;;;;;;;;;5109278;27;20780;-60
2020/12/26 11:00:10;;;;;;;9.17;5.53;;;;;;;;;;5113186;28;20425;-56
2020/12/26 11:02:36;;;;;;;8.33;6.10;;;;;;;;;;5112168;28;20474;-57
2020/12/26 11:05:03;;;;;;;8.00;4.90;;;;;;;;;;5095759;28;20225;-58
2020/12/26 11:07:29;;;;;;;9.17;6.20;;;;;;;;;;5108964;28;20429;-58
2020/12/26 11:09:55;;;;;;;9.67;6.10;;;;;;;;;;5114169;28;21156;-58
2020/12/26 11:12:21;;;;;;;9.53;5.70;;;;;;;;;;5117688;27;20436;-58
2020/12/26 11:14:47;;;;;;;9.53;5.07;;;;;;;;;;5111436;28;20409;-57
2020/12/26 11:17:14;;;;;;;6.67;4.83;;;;;;;;;;5107811;28;20628;-58
2020/12/26 11:19:40;;;;;;;7.97;4.13;;;;;;;;;;5114186;28;20530;-57
2020/12/26 11:22:06;;;;;;;5.30;4.10;;;;;;;;;;5106857;28;21124;-58
2020/12/26 11:24:32;;;;;;;6.73;4.43;;;;;;;;;;5109428;28;20478;-57
2020/12/26 11:26:58;;;;;;;4.97;3.73;;;;;;;;;;5100401;28;20179;-57
2020/12/26 11:29:24;;;;;;;7.97;4.63;;;;;;;;;;5102439;28;20261;-57
2020/12/26 11:31:51;;;;;;;4.20;3.67;;;;;;;;;;5093413;28;20952;-57
2020/12/26 11:34:17;;;;;;;5.43;3.17;;;;;;;;;;5075258;28;20263;-57
2020/12/26 11:36:43;;;;;;;5.87;4.57;;;;;;;;;;5093638;28;20544;-58
2020/12/26 11:39:10;;;;;;;4.43;3.73;;;;;;;;;;5099686;28;20186;-58
2020/12/26 11:41:36;;;;;;;7.67;4.57;;;;;;;;;;5097787;27;20503;-58
2020/12/26 11:44:02;;;;;;;6.33;4.03;;;;;;;;;;5097894;28;20432;-57
2020/12/26 11:46:29;;;;;;;6.07;4.40;;;;;;;;;;5105204;28;20429;-58
2020/12/26 11:48:55;;;;;;;6.73;4.20;;;;;;;;;;5096162;28;20507;-57
2020/12/26 11:51:21;;;;;;;5.73;4.50;;;;;;;;;;5105018;28;20974;-58
2020/12/26 11:53:47;;;;;;;5.53;4.70;;;;;;;;;;5094691;28;20235;-58
2020/12/26 11:56:16;;;;;;;6.60;4.00;;;;;;;;;;5112352;27;20416;-57
2020/12/26 11:58:43;;;;;;;6.20;5.17;;;;;;;;;;5103799;27;20172;-58
2020/12/26 12:01:09;;;;;;;4.70;3.23;;;;;;;;;;5109706;27;20227;-56
2020/12/26 12:03:36;;;;;;;4.43;3.57;;;;;;;;;;5088872;27;20187;-57
2020/12/26 12:06:03;;;;;;;6.17;3.17;;;;;;;;;;5082310;28;20223;-58
2020/12/26 12:08:29;;;;;;;5.53;3.63;;;;;;;;;;5096349;28;20246;-56
2020/12/26 12:10:55;;;;;;;6.10;3.60;;;;;;;;;;5093599;28;20163;-57
2020/12/26 12:13:21;;;;;;;4.13;2.93;;;;;;;;;;5112092;28;20178;-56
2020/12/26 12:15:47;;;;;;;3.30;2.40;;;;;;;;;;5111639;28;20174;-56
2020/12/26 12:18:13;;;;;;;10.50;2.87;;;;;;;;;;5104594;27;20640;-57
2020/12/26 12:20:40;;;;;;;4.90;3.27;;;;;;;;;;5093926;28;20232;-56
2020/12/26 12:23:06;;;;;;;4.67;2.93;;;;;;;;;;5102387;28;20198;-58
2020/12/26 12:25:32;;;;;;;5.50;4.20;;;;;;;;;;5094966;28;20430;-58
2020/12/26 12:27:58;;;;;;;7.30;3.40;;;;;;;;;;5103905;27;20541;-56
2020/12/26 12:30:25;;;;;;;5.53;3.60;;;;;;;;;;5104115;28;20194;-56
2020/12/26 12:32:51;;;;;;;5.13;3.13;;;;;;;;;;5107955;28;20231;-57
2020/12/26 12:35:17;;;;;;;4.70;2.70;;;;;;;;;;5105467;28;20175;-58
2020/12/26 12:37:47;;;;;;;4.10;3.27;;;;;;;;;;5109766;27;20214;-60
2020/12/26 12:40:14;;;;;;;3.30;3.00;;;;;;;;;;5132440;27;20253;-57
2020/12/26 12:42:40;;;;;;;5.93;3.27;;;;;;;;;;5125604;27;20171;-57
2020/12/26 12:45:06;;;;;;;5.40;3.37;;;;;;;;;;5111733;28;20617;-57
2020/12/26 12:47:32;;;;;;;5.30;4.10;;;;;;;;;;5106144;28;20175;-57
2020/12/26 12:49:58;;;;;;;4.10;2.70;;;;;;;;;;5108925;28;20219;-57
2020/12/26 12:52:24;;;;;;;4.83;3.07;;;;;;;;;;5110829;28;20256;-57
2020/12/26 12:54:50;;;;;;;4.70;2.77;;;;;;;;;;5110559;28;20181;-57
2020/12/26 12:57:16;;;;;;;2.73;2.30;;;;;;;;;;5105439;28;20171;-59
2020/12/26 12:59:43;;;;;;;3.10;2.60;;;;;;;;;;5109967;28;20274;-58
2020/12/26 13:02:09;;;;;;;6.83;2.70;;;;;;;;;;5110941;28;20405;-58
2020/12/26 13:04:36;;;;;;;5.47;3.10;;;;;;;;;;5127712;27;20720;-57
2020/12/26 13:07:02;;;;;;;5.43;2.93;;;;;;;;;;5076021;28;20952;-57
2020/12/26 13:09:28;;;;;;;4.87;2.73;;;;;;;;;;5110753;28;20427;-57
2020/12/26 13:11:54;;;;;;;4.10;3.27;;;;;;;;;;5109681;28;20163;-58
2020/12/26 13:14:20;;;;;;;3.63;3.00;;;;;;;;;;5123669;27;20170;-56
2020/12/26 13:16:46;;;;;;;5.10;2.93;;;;;;;;;;5113530;27;20183;-56
2020/12/26 13:19:12;;;;;;;5.00;3.27;;;;;;;;;;5085821;28;20228;-58
2020/12/26 13:21:38;;;;;;;3.43;2.47;;;;;;;;;;5099071;28;20167;-57
2020/12/26 13:24:05;;;;;;;6.87;2.93;;;;;;;;;;5102555;28;20285;-56
2020/12/26 13:26:31;;;;;;;6.67;3.07;;;;;;;;;;5108307;28;20652;-57
2020/12/26 13:28:57;;;;;;;4.67;2.47;;;;;;;;;;5102369;28;20460;-57
2020/12/26 13:31:33;;;;;;;5.67;3.00;;;;;;;;;;5091490;28;20205;-58
2020/12/26 13:33:59;;;;;;;7.33;2.60;;;;;;;;;;5121017;27;20189;-60
2020/12/26 13:36:26;;;;;;;5.47;2.87;;;;;;;;;;5106562;28;20622;-58
2020/12/26 13:38:52;;;;;;;3.43;2.20;;;;;;;;;;5109366;28;20658;-57
2020/12/26 13:41:19;;;;;;;3.90;2.77;;;;;;;;;;5110040;28;20697;-58
2020/12/26 13:43:47;;;;;;;7.27;2.80;;;;;;;;;;5085881;28;20182;-57
2020/12/26 13:46:13;;;;;;;7.00;2.87;;;;;;;;;;5107908;28;20236;-58
2020/12/26 13:48:39;;;;;;;3.67;2.67;;;;;;;;;;5104250;28;20457;-58
2020/12/26 13:51:08;;;;;;;5.53;2.53;;;;;;;;;;5110969;28;20485;-58
2020/12/26 13:53:34;;;;;;;3.60;2.70;;;;;;;;;;5112854;28;20705;-58
2020/12/26 13:56:01;;;;;;;3.87;2.60;;;;;;;;;;5106709;28;20167;-58
2020/12/26 13:58:27;;;;;;;6.73;2.90;;;;;;;;;;5094647;28;20175;-58
2020/12/26 14:00:52;;;;;;;4.17;2.03;;;;;;;;;;5107384;28;20437;-57
2020/12/26 14:03:19;;;;;;;4.23;2.10;;;;;;;;;;5109502;28;20175;-57
2020/12/26 14:05:45;;;;;;;2.63;2.33;;;;;;;;;;5110586;28;20221;-57
2020/12/26 14:08:11;;;;;;;5.30;2.30;;;;;;;;;;5113398;28;20506;-58
2020/12/26 14:10:37;;;;;;;5.67;2.90;;;;;;;;;;5114026;28;20179;-56
2020/12/26 14:13:03;;;;;;;5.17;2.80;;;;;;;;;;5115414;27;20659;-57
2020/12/26 14:15:30;;;;;;;4.97;2.30;;;;;;;;;;5109807;27;20425;-57
2020/12/26 14:17:56;;;;;;;4.30;2.37;;;;;;;;;;5113886;28;20238;-57
2020/12/26 14:20:22;;;;;;;2.90;2.50;;;;;;;;;;5114448;27;20226;-57
2020/12/26 14:22:48;;;;;;;3.10;2.50;;;;;;;;;;5108079;27;20180;-56
2020/12/26 14:25:14;;;;;;;4.63;2.70;;;;;;;;;;5104900;28;20421;-56
2020/12/26 14:27:40;;;;;;;4.23;2.77;;;;;;;;;;5110753;27;20650;-59
2020/12/26 14:30:07;;;;;;;3.40;2.50;;;;;;;;;;5110606;28;20734;-56
2020/12/26 14:32:33;;;;;;;5.03;2.73;;;;;;;;;;5094878;28;20417;-57
2020/12/26 14:34:59;;;;;;;4.73;2.33;;;;;;;;;;5113693;28;20477;-57
2020/12/26 14:37:25;;;;;;;6.10;3.83;;;;;;;;;;5112952;28;20179;-61